sensor_id;sensor_type;location;lat;lon;timestamp;P1;durP1;ratioP1;P2;durP2;ratioP2
18997;SDS011;9632;51.018;4.284;2023-12-20T00:01:35;12.75;;;1.92;;
18997;SDS011;9632;51.018;4.284;2023-12-20T00:04:02;6.57;;;1.50;;
18997;SDS011;9632;51.018;4.284;2023-12-20T00:06:28;11.60;;;1.80;;
18997;SDS011;9632;51.018;4.284;2023-12-20T00:08:54;12.77;;;2.15;;
18997;SDS011;9632;51.018;4.284;2023-12-20T00:11:20;8.05;;;1.60;;
18997;SDS011;9632;51.018;4.284;2023-12-20T00:13:45;14.15;;;2.22;;
18997;SDS011;9632;51.018;4.284;2023-12-20T00:16:11;9.38;;;1.58;;
18997;SDS011;9632;51.018;4.284;2023-12-20T00:18:36;15.07;;;2.85;;
18997;SDS011;9632;51.018;4.284;2023-12-20T00:21:02;14.98;;;1.85;;
18997;SDS011;9632;51.018;4.284;2023-12-20T00:23:28;6.78;;;1.30;;
18997;SDS011;9632;51.018;4.284;2023-12-20T00:25:54;8.82;;;1.73;;
18997;SDS011;9632;51.018;4.284;2023-12-20T00:28:19;9.27;;;1.40;;
18997;SDS011;9632;51.018;4.284;2023-12-20T00:30:45;9.85;;;1.92;;
18997;SDS011;9632;51.018;4.284;2023-12-20T00:33:11;7.43;;;1.50;;
18997;SDS011;9632;51.018;4.284;2023-12-20T00:35:36;8.63;;;1.50;;
18997;SDS011;9632;51.018;4.284;2023-12-20T00:38:02;11.93;;;1.92;;
18997;SDS011;9632;51.018;4.284;2023-12-20T00:40:30;8.43;;;1.48;;
18997;SDS011;9632;51.018;4.284;2023-12-20T00:42:55;9.73;;;1.85;;
18997;SDS011;9632;51.018;4.284;2023-12-20T00:45:21;10.65;;;1.80;;
18997;SDS011;9632;51.018;4.284;2023-12-20T00:47:46;9.55;;;1.85;;
18997;SDS011;9632;51.018;4.284;2023-12-20T00:50:12;10.30;;;2.00;;
18997;SDS011;9632;51.018;4.284;2023-12-20T00:52:38;11.75;;;1.90;;
18997;SDS011;9632;51.018;4.284;2023-12-20T00:55:04;10.38;;;1.67;;
18997;SDS011;9632;51.018;4.284;2023-12-20T00:57:30;9.27;;;1.60;;
18997;SDS011;9632;51.018;4.284;2023-12-20T00:59:56;11.77;;;1.65;;
18997;SDS011;9632;51.018;4.284;2023-12-20T01:02:21;14.30;;;1.90;;
18997;SDS011;9632;51.018;4.284;2023-12-20T01:04:47;11.77;;;1.65;;
18997;SDS011;9632;51.018;4.284;2023-12-20T01:07:13;12.15;;;1.83;;
18997;SDS011;9632;51.018;4.284;2023-12-20T01:09:38;22.85;;;2.70;;
18997;SDS011;9632;51.018;4.284;2023-12-20T01:12:04;10.95;;;1.75;;
18997;SDS011;9632;51.018;4.284;2023-12-20T01:14:30;11.48;;;1.88;;
18997;SDS011;9632;51.018;4.284;2023-12-20T01:16:55;16.70;;;2.05;;
18997;SDS011;9632;51.018;4.284;2023-12-20T01:19:21;15.30;;;2.17;;
18997;SDS011;9632;51.018;4.284;2023-12-20T01:21:47;14.48;;;2.33;;
18997;SDS011;9632;51.018;4.284;2023-12-20T01:24:13;16.80;;;2.92;;
18997;SDS011;9632;51.018;4.284;2023-12-20T01:26:38;17.63;;;2.08;;
18997;SDS011;9632;51.018;4.284;2023-12-20T01:29:04;15.70;;;2.20;;
18997;SDS011;9632;51.018;4.284;2023-12-20T01:31:30;13.57;;;2.00;;
18997;SDS011;9632;51.018;4.284;2023-12-20T01:33:55;11.63;;;2.05;;
18997;SDS011;9632;51.018;4.284;2023-12-20T01:36:21;11.90;;;2.35;;
18997;SDS011;9632;51.018;4.284;2023-12-20T01:38:46;13.80;;;2.28;;
18997;SDS011;9632;51.018;4.284;2023-12-20T01:41:12;17.20;;;2.25;;
18997;SDS011;9632;51.018;4.284;2023-12-20T01:43:38;16.23;;;2.47;;
18997;SDS011;9632;51.018;4.284;2023-12-20T01:46:03;15.63;;;2.67;;
18997;SDS011;9632;51.018;4.284;2023-12-20T01:48:30;17.30;;;2.60;;
18997;SDS011;9632;51.018;4.284;2023-12-20T01:51:01;14.38;;;2.70;;
18997;SDS011;9632;51.018;4.284;2023-12-20T01:53:28;11.90;;;2.42;;
18997;SDS011;9632;51.018;4.284;2023-12-20T01:55:54;12.52;;;2.15;;
18997;SDS011;9632;51.018;4.284;2023-12-20T01:58:21;13.15;;;3.45;;
18997;SDS011;9632;51.018;4.284;2023-12-20T02:00:48;22.05;;;3.20;;
18997;SDS011;9632;51.018;4.284;2023-12-20T02:03:14;12.77;;;3.00;;
18997;SDS011;9632;51.018;4.284;2023-12-20T02:05:40;15.30;;;3.50;;
18997;SDS011;9632;51.018;4.284;2023-12-20T02:08:06;14.85;;;3.17;;
18997;SDS011;9632;51.018;4.284;2023-12-20T02:10:32;13.60;;;2.65;;
18997;SDS011;9632;51.018;4.284;2023-12-20T02:12:58;11.60;;;2.70;;
18997;SDS011;9632;51.018;4.284;2023-12-20T02:15:23;16.67;;;3.38;;
18997;SDS011;9632;51.018;4.284;2023-12-20T02:17:49;18.98;;;3.00;;
18997;SDS011;9632;51.018;4.284;2023-12-20T02:20:15;25.77;;;4.20;;
18997;SDS011;9632;51.018;4.284;2023-12-20T02:22:41;17.35;;;3.03;;
18997;SDS011;9632;51.018;4.284;2023-12-20T02:25:07;21.73;;;3.33;;
18997;SDS011;9632;51.018;4.284;2023-12-20T02:27:33;17.77;;;3.17;;
18997;SDS011;9632;51.018;4.284;2023-12-20T02:30:00;17.75;;;2.70;;
18997;SDS011;9632;51.018;4.284;2023-12-20T02:32:25;24.30;;;3.40;;
18997;SDS011;9632;51.018;4.284;2023-12-20T02:34:51;14.85;;;2.80;;
18997;SDS011;9632;51.018;4.284;2023-12-20T02:37:17;20.50;;;2.95;;
18997;SDS011;9632;51.018;4.284;2023-12-20T02:39:42;14.75;;;3.05;;
18997;SDS011;9632;51.018;4.284;2023-12-20T02:42:08;17.98;;;3.13;;
18997;SDS011;9632;51.018;4.284;2023-12-20T02:44:34;20.05;;;3.53;;
18997;SDS011;9632;51.018;4.284;2023-12-20T02:46:59;13.18;;;2.90;;
18997;SDS011;9632;51.018;4.284;2023-12-20T02:49:25;19.02;;;2.95;;
18997;SDS011;9632;51.018;4.284;2023-12-20T02:51:51;13.55;;;2.55;;
18997;SDS011;9632;51.018;4.284;2023-12-20T02:54:16;16.27;;;2.60;;
18997;SDS011;9632;51.018;4.284;2023-12-20T02:56:42;23.60;;;3.55;;
18997;SDS011;9632;51.018;4.284;2023-12-20T02:59:08;23.73;;;3.45;;
18997;SDS011;9632;51.018;4.284;2023-12-20T03:01:34;28.05;;;4.35;;
18997;SDS011;9632;51.018;4.284;2023-12-20T03:04:00;33.45;;;3.88;;
18997;SDS011;9632;51.018;4.284;2023-12-20T03:06:26;20.42;;;3.30;;
18997;SDS011;9632;51.018;4.284;2023-12-20T03:08:52;31.33;;;3.50;;
18997;SDS011;9632;51.018;4.284;2023-12-20T03:11:18;26.45;;;3.60;;
18997;SDS011;9632;51.018;4.284;2023-12-20T03:13:43;27.02;;;4.20;;
18997;SDS011;9632;51.018;4.284;2023-12-20T03:16:09;21.42;;;3.00;;
18997;SDS011;9632;51.018;4.284;2023-12-20T03:18:36;21.98;;;3.53;;
18997;SDS011;9632;51.018;4.284;2023-12-20T03:21:02;26.70;;;3.88;;
18997;SDS011;9632;51.018;4.284;2023-12-20T03:23:28;19.15;;;3.70;;
18997;SDS011;9632;51.018;4.284;2023-12-20T03:25:55;24.40;;;3.38;;
18997;SDS011;9632;51.018;4.284;2023-12-20T03:28:21;19.25;;;3.65;;
18997;SDS011;9632;51.018;4.284;2023-12-20T03:30:48;28.45;;;3.63;;
18997;SDS011;9632;51.018;4.284;2023-12-20T03:33:13;21.92;;;3.25;;
18997;SDS011;9632;51.018;4.284;2023-12-20T03:35:39;22.58;;;3.58;;
18997;SDS011;9632;51.018;4.284;2023-12-20T03:38:05;20.02;;;3.17;;
18997;SDS011;9632;51.018;4.284;2023-12-20T03:40:30;31.83;;;4.32;;
18997;SDS011;9632;51.018;4.284;2023-12-20T03:42:56;28.63;;;3.28;;
18997;SDS011;9632;51.018;4.284;2023-12-20T03:45:22;25.80;;;3.35;;
18997;SDS011;9632;51.018;4.284;2023-12-20T03:47:47;16.80;;;3.05;;
18997;SDS011;9632;51.018;4.284;2023-12-20T03:50:13;29.55;;;3.90;;
18997;SDS011;9632;51.018;4.284;2023-12-20T03:52:39;23.67;;;3.55;;
18997;SDS011;9632;51.018;4.284;2023-12-20T03:55:05;22.55;;;3.67;;
18997;SDS011;9632;51.018;4.284;2023-12-20T03:57:31;28.10;;;4.28;;
18997;SDS011;9632;51.018;4.284;2023-12-20T03:59:56;22.50;;;3.72;;
18997;SDS011;9632;51.018;4.284;2023-12-20T04:02:22;27.52;;;3.92;;
18997;SDS011;9632;51.018;4.284;2023-12-20T04:04:47;19.40;;;3.47;;
18997;SDS011;9632;51.018;4.284;2023-12-20T04:07:13;17.63;;;3.05;;
18997;SDS011;9632;51.018;4.284;2023-12-20T04:09:40;22.27;;;3.22;;
18997;SDS011;9632;51.018;4.284;2023-12-20T04:12:06;22.48;;;3.17;;
18997;SDS011;9632;51.018;4.284;2023-12-20T04:14:32;26.92;;;2.97;;
18997;SDS011;9632;51.018;4.284;2023-12-20T04:16:57;17.67;;;2.55;;
18997;SDS011;9632;51.018;4.284;2023-12-20T04:19:23;19.40;;;3.10;;
18997;SDS011;9632;51.018;4.284;2023-12-20T04:21:49;23.83;;;3.40;;
18997;SDS011;9632;51.018;4.284;2023-12-20T04:24:14;24.98;;;3.20;;
18997;SDS011;9632;51.018;4.284;2023-12-20T04:26:40;18.52;;;3.00;;
18997;SDS011;9632;51.018;4.284;2023-12-20T04:29:06;15.32;;;2.83;;
18997;SDS011;9632;51.018;4.284;2023-12-20T04:31:31;21.05;;;3.05;;
18997;SDS011;9632;51.018;4.284;2023-12-20T04:33:57;22.23;;;3.25;;
18997;SDS011;9632;51.018;4.284;2023-12-20T04:36:22;18.08;;;2.72;;
18997;SDS011;9632;51.018;4.284;2023-12-20T04:38:50;22.08;;;3.00;;
18997;SDS011;9632;51.018;4.284;2023-12-20T04:41:15;25.17;;;3.30;;
18997;SDS011;9632;51.018;4.284;2023-12-20T04:43:43;21.08;;;3.13;;
18997;SDS011;9632;51.018;4.284;2023-12-20T04:46:09;18.50;;;3.15;;
18997;SDS011;9632;51.018;4.284;2023-12-20T04:48:35;21.30;;;3.10;;
18997;SDS011;9632;51.018;4.284;2023-12-20T04:51:00;19.30;;;3.08;;
18997;SDS011;9632;51.018;4.284;2023-12-20T04:53:26;18.38;;;3.38;;
18997;SDS011;9632;51.018;4.284;2023-12-20T04:55:52;21.02;;;3.17;;
18997;SDS011;9632;51.018;4.284;2023-12-20T04:58:18;18.92;;;3.00;;
18997;SDS011;9632;51.018;4.284;2023-12-20T05:00:44;21.05;;;3.65;;
18997;SDS011;9632;51.018;4.284;2023-12-20T05:03:09;17.10;;;2.75;;
18997;SDS011;9632;51.018;4.284;2023-12-20T05:05:35;21.92;;;3.30;;
18997;SDS011;9632;51.018;4.284;2023-12-20T05:08:01;23.08;;;3.53;;
18997;SDS011;9632;51.018;4.284;2023-12-20T05:10:27;28.50;;;3.72;;
18997;SDS011;9632;51.018;4.284;2023-12-20T05:12:53;21.02;;;3.13;;
18997;SDS011;9632;51.018;4.284;2023-12-20T05:15:18;19.58;;;2.97;;
18997;SDS011;9632;51.018;4.284;2023-12-20T05:17:44;14.50;;;2.70;;
18997;SDS011;9632;51.018;4.284;2023-12-20T05:20:10;27.23;;;3.35;;
18997;SDS011;9632;51.018;4.284;2023-12-20T05:22:35;24.58;;;3.17;;
18997;SDS011;9632;51.018;4.284;2023-12-20T05:25:01;23.85;;;3.47;;
18997;SDS011;9632;51.018;4.284;2023-12-20T05:27:27;16.00;;;3.30;;
18997;SDS011;9632;51.018;4.284;2023-12-20T05:29:53;19.55;;;2.90;;
18997;SDS011;9632;51.018;4.284;2023-12-20T05:32:22;27.00;;;2.90;;
18997;SDS011;9632;51.018;4.284;2023-12-20T05:34:48;16.10;;;2.90;;
18997;SDS011;9632;51.018;4.284;2023-12-20T05:37:14;21.98;;;3.03;;
18997;SDS011;9632;51.018;4.284;2023-12-20T05:39:39;20.05;;;2.92;;
18997;SDS011;9632;51.018;4.284;2023-12-20T05:42:05;22.17;;;3.30;;
18997;SDS011;9632;51.018;4.284;2023-12-20T05:44:31;23.42;;;3.00;;
18997;SDS011;9632;51.018;4.284;2023-12-20T05:46:56;19.95;;;2.75;;
18997;SDS011;9632;51.018;4.284;2023-12-20T05:49:22;24.23;;;3.03;;
18997;SDS011;9632;51.018;4.284;2023-12-20T05:51:47;17.58;;;2.85;;
18997;SDS011;9632;51.018;4.284;2023-12-20T05:54:13;20.67;;;3.20;;
18997;SDS011;9632;51.018;4.284;2023-12-20T05:56:39;19.15;;;3.13;;
18997;SDS011;9632;51.018;4.284;2023-12-20T05:59:04;15.88;;;2.95;;
18997;SDS011;9632;51.018;4.284;2023-12-20T06:01:30;21.92;;;3.20;;
18997;SDS011;9632;51.018;4.284;2023-12-20T06:03:55;23.90;;;3.30;;
18997;SDS011;9632;51.018;4.284;2023-12-20T06:06:21;28.00;;;2.95;;
18997;SDS011;9632;51.018;4.284;2023-12-20T06:08:47;28.30;;;3.17;;
18997;SDS011;9632;51.018;4.284;2023-12-20T06:11:12;27.67;;;3.30;;
18997;SDS011;9632;51.018;4.284;2023-12-20T06:13:38;19.17;;;3.35;;
18997;SDS011;9632;51.018;4.284;2023-12-20T06:16:05;23.35;;;3.35;;
18997;SDS011;9632;51.018;4.284;2023-12-20T06:18:31;25.77;;;3.40;;
18997;SDS011;9632;51.018;4.284;2023-12-20T06:20:57;21.85;;;3.10;;
18997;SDS011;9632;51.018;4.284;2023-12-20T06:23:22;24.67;;;2.80;;
18997;SDS011;9632;51.018;4.284;2023-12-20T06:25:48;24.50;;;3.17;;
18997;SDS011;9632;51.018;4.284;2023-12-20T06:28:13;22.48;;;3.00;;
18997;SDS011;9632;51.018;4.284;2023-12-20T06:30:40;26.85;;;3.33;;
18997;SDS011;9632;51.018;4.284;2023-12-20T06:33:05;26.65;;;3.47;;
18997;SDS011;9632;51.018;4.284;2023-12-20T06:35:31;14.75;;;3.40;;
18997;SDS011;9632;51.018;4.284;2023-12-20T06:37:57;26.35;;;3.30;;
18997;SDS011;9632;51.018;4.284;2023-12-20T06:40:23;27.00;;;3.13;;
18997;SDS011;9632;51.018;4.284;2023-12-20T06:42:49;18.45;;;2.80;;
18997;SDS011;9632;51.018;4.284;2023-12-20T06:45:14;18.48;;;2.70;;
18997;SDS011;9632;51.018;4.284;2023-12-20T06:47:40;22.13;;;2.60;;
18997;SDS011;9632;51.018;4.284;2023-12-20T06:50:06;15.10;;;2.22;;
18997;SDS011;9632;51.018;4.284;2023-12-20T06:52:33;16.15;;;2.75;;
18997;SDS011;9632;51.018;4.284;2023-12-20T06:55:00;28.10;;;2.60;;
18997;SDS011;9632;51.018;4.284;2023-12-20T06:57:26;27.05;;;3.60;;
18997;SDS011;9632;51.018;4.284;2023-12-20T06:59:52;24.02;;;2.63;;
18997;SDS011;9632;51.018;4.284;2023-12-20T07:02:18;20.88;;;3.30;;
18997;SDS011;9632;51.018;4.284;2023-12-20T07:04:44;20.70;;;2.55;;
18997;SDS011;9632;51.018;4.284;2023-12-20T07:07:09;24.55;;;2.80;;
18997;SDS011;9632;51.018;4.284;2023-12-20T07:09:35;17.10;;;2.55;;
18997;SDS011;9632;51.018;4.284;2023-12-20T07:12:01;19.63;;;2.78;;
18997;SDS011;9632;51.018;4.284;2023-12-20T07:14:27;24.17;;;3.20;;
18997;SDS011;9632;51.018;4.284;2023-12-20T07:16:54;25.08;;;2.50;;
18997;SDS011;9632;51.018;4.284;2023-12-20T07:19:19;15.70;;;2.58;;
18997;SDS011;9632;51.018;4.284;2023-12-20T07:21:45;23.20;;;3.20;;
18997;SDS011;9632;51.018;4.284;2023-12-20T07:24:11;15.45;;;2.40;;
18997;SDS011;9632;51.018;4.284;2023-12-20T07:26:36;19.35;;;2.75;;
18997;SDS011;9632;51.018;4.284;2023-12-20T07:29:03;26.90;;;2.75;;
18997;SDS011;9632;51.018;4.284;2023-12-20T07:31:29;17.92;;;2.47;;
18997;SDS011;9632;51.018;4.284;2023-12-20T07:33:55;17.33;;;2.47;;
18997;SDS011;9632;51.018;4.284;2023-12-20T07:36:21;24.45;;;2.90;;
18997;SDS011;9632;51.018;4.284;2023-12-20T07:38:47;15.27;;;2.20;;
18997;SDS011;9632;51.018;4.284;2023-12-20T07:41:12;16.65;;;2.38;;
18997;SDS011;9632;51.018;4.284;2023-12-20T07:43:38;14.13;;;2.47;;
18997;SDS011;9632;51.018;4.284;2023-12-20T07:46:07;21.30;;;2.35;;
18997;SDS011;9632;51.018;4.284;2023-12-20T07:48:36;20.25;;;3.42;;
18997;SDS011;9632;51.018;4.284;2023-12-20T07:51:03;14.35;;;1.92;;
18997;SDS011;9632;51.018;4.284;2023-12-20T07:53:29;17.33;;;2.20;;
18997;SDS011;9632;51.018;4.284;2023-12-20T07:55:55;24.45;;;2.70;;
18997;SDS011;9632;51.018;4.284;2023-12-20T07:58:20;22.42;;;2.70;;
18997;SDS011;9632;51.018;4.284;2023-12-20T08:00:47;13.07;;;2.50;;
18997;SDS011;9632;51.018;4.284;2023-12-20T08:03:12;15.18;;;1.90;;
18997;SDS011;9632;51.018;4.284;2023-12-20T08:05:38;22.80;;;2.53;;
18997;SDS011;9632;51.018;4.284;2023-12-20T08:08:07;18.23;;;2.50;;
18997;SDS011;9632;51.018;4.284;2023-12-20T08:10:32;16.02;;;2.28;;
18997;SDS011;9632;51.018;4.284;2023-12-20T08:12:58;30.27;;;2.97;;
18997;SDS011;9632;51.018;4.284;2023-12-20T08:15:24;24.17;;;2.80;;
18997;SDS011;9632;51.018;4.284;2023-12-20T08:17:49;15.27;;;2.70;;
18997;SDS011;9632;51.018;4.284;2023-12-20T08:20:16;14.15;;;2.38;;
18997;SDS011;9632;51.018;4.284;2023-12-20T08:22:42;21.45;;;2.40;;
18997;SDS011;9632;51.018;4.284;2023-12-20T08:25:07;21.65;;;2.53;;
18997;SDS011;9632;51.018;4.284;2023-12-20T08:27:34;18.80;;;3.10;;
18997;SDS011;9632;51.018;4.284;2023-12-20T08:30:04;17.58;;;2.50;;
18997;SDS011;9632;51.018;4.284;2023-12-20T08:32:31;16.67;;;2.35;;
18997;SDS011;9632;51.018;4.284;2023-12-20T08:34:57;24.50;;;2.67;;
18997;SDS011;9632;51.018;4.284;2023-12-20T08:37:23;14.57;;;2.30;;
18997;SDS011;9632;51.018;4.284;2023-12-20T08:39:48;24.88;;;2.50;;
18997;SDS011;9632;51.018;4.284;2023-12-20T08:42:14;16.02;;;2.40;;
18997;SDS011;9632;51.018;4.284;2023-12-20T08:44:40;19.45;;;2.50;;
18997;SDS011;9632;51.018;4.284;2023-12-20T08:47:05;25.40;;;2.38;;
18997;SDS011;9632;51.018;4.284;2023-12-20T08:49:31;19.75;;;2.63;;
18997;SDS011;9632;51.018;4.284;2023-12-20T08:51:57;26.65;;;3.10;;
18997;SDS011;9632;51.018;4.284;2023-12-20T08:54:22;19.63;;;2.92;;
18997;SDS011;9632;51.018;4.284;2023-12-20T08:56:48;18.52;;;2.50;;
18997;SDS011;9632;51.018;4.284;2023-12-20T08:59:14;16.35;;;2.58;;
18997;SDS011;9632;51.018;4.284;2023-12-20T09:01:39;23.42;;;2.85;;
18997;SDS011;9632;51.018;4.284;2023-12-20T09:04:05;22.30;;;2.92;;
18997;SDS011;9632;51.018;4.284;2023-12-20T09:06:31;22.25;;;2.47;;
18997;SDS011;9632;51.018;4.284;2023-12-20T09:08:57;15.13;;;3.17;;
18997;SDS011;9632;51.018;4.284;2023-12-20T09:11:23;19.65;;;2.38;;
18997;SDS011;9632;51.018;4.284;2023-12-20T09:13:48;17.05;;;3.33;;
18997;SDS011;9632;51.018;4.284;2023-12-20T09:16:14;28.55;;;3.13;;
18997;SDS011;9632;51.018;4.284;2023-12-20T09:18:41;12.95;;;2.70;;
18997;SDS011;9632;51.018;4.284;2023-12-20T09:21:07;22.45;;;3.08;;
18997;SDS011;9632;51.018;4.284;2023-12-20T09:23:32;19.27;;;2.45;;
18997;SDS011;9632;51.018;4.284;2023-12-20T09:25:58;19.50;;;2.92;;
18997;SDS011;9632;51.018;4.284;2023-12-20T09:28:24;18.85;;;3.42;;
18997;SDS011;9632;51.018;4.284;2023-12-20T09:30:50;20.98;;;2.50;;
18997;SDS011;9632;51.018;4.284;2023-12-20T09:33:15;23.70;;;3.00;;
18997;SDS011;9632;51.018;4.284;2023-12-20T09:35:41;24.63;;;3.22;;
18997;SDS011;9632;51.018;4.284;2023-12-20T09:38:07;16.50;;;2.15;;
18997;SDS011;9632;51.018;4.284;2023-12-20T09:40:33;18.88;;;2.50;;
18997;SDS011;9632;51.018;4.284;2023-12-20T09:43:03;17.55;;;3.65;;
18997;SDS011;9632;51.018;4.284;2023-12-20T09:45:30;19.63;;;2.67;;
18997;SDS011;9632;51.018;4.284;2023-12-20T09:47:57;23.75;;;2.65;;
18997;SDS011;9632;51.018;4.284;2023-12-20T09:50:23;12.98;;;2.30;;
18997;SDS011;9632;51.018;4.284;2023-12-20T09:52:52;19.50;;;2.63;;
18997;SDS011;9632;51.018;4.284;2023-12-20T09:55:21;26.02;;;2.95;;
18997;SDS011;9632;51.018;4.284;2023-12-20T09:57:47;18.63;;;2.85;;
18997;SDS011;9632;51.018;4.284;2023-12-20T10:00:13;17.30;;;3.00;;
18997;SDS011;9632;51.018;4.284;2023-12-20T10:02:42;23.65;;;2.80;;
18997;SDS011;9632;51.018;4.284;2023-12-20T10:05:15;18.95;;;2.40;;
18997;SDS011;9632;51.018;4.284;2023-12-20T10:07:44;23.42;;;2.88;;
18997;SDS011;9632;51.018;4.284;2023-12-20T10:10:10;15.95;;;2.78;;
18997;SDS011;9632;51.018;4.284;2023-12-20T10:12:38;26.42;;;3.08;;
18997;SDS011;9632;51.018;4.284;2023-12-20T10:15:04;20.60;;;2.72;;
18997;SDS011;9632;51.018;4.284;2023-12-20T10:17:30;24.85;;;2.50;;
18997;SDS011;9632;51.018;4.284;2023-12-20T10:19:57;19.27;;;2.72;;
18997;SDS011;9632;51.018;4.284;2023-12-20T10:22:23;22.52;;;2.85;;
18997;SDS011;9632;51.018;4.284;2023-12-20T10:24:49;22.60;;;2.53;;
18997;SDS011;9632;51.018;4.284;2023-12-20T10:27:14;17.70;;;2.85;;
18997;SDS011;9632;51.018;4.284;2023-12-20T10:29:44;18.63;;;2.42;;
18997;SDS011;9632;51.018;4.284;2023-12-20T10:32:23;16.50;;;2.83;;
18997;SDS011;9632;51.018;4.284;2023-12-20T10:34:51;24.77;;;2.80;;
18997;SDS011;9632;51.018;4.284;2023-12-20T10:37:17;17.60;;;2.40;;
18997;SDS011;9632;51.018;4.284;2023-12-20T10:39:43;18.15;;;2.83;;
18997;SDS011;9632;51.018;4.284;2023-12-20T10:42:12;19.70;;;3.15;;
18997;SDS011;9632;51.018;4.284;2023-12-20T10:44:38;21.05;;;3.33;;
18997;SDS011;9632;51.018;4.284;2023-12-20T10:47:04;19.40;;;2.58;;
18997;SDS011;9632;51.018;4.284;2023-12-20T10:49:31;23.10;;;2.92;;
18997;SDS011;9632;51.018;4.284;2023-12-20T10:52:01;16.52;;;2.30;;
18997;SDS011;9632;51.018;4.284;2023-12-20T10:54:29;17.55;;;3.08;;
18997;SDS011;9632;51.018;4.284;2023-12-20T10:56:55;18.33;;;2.80;;
18997;SDS011;9632;51.018;4.284;2023-12-20T10:59:23;19.35;;;2.50;;
18997;SDS011;9632;51.018;4.284;2023-12-20T11:01:50;21.02;;;3.00;;
18997;SDS011;9632;51.018;4.284;2023-12-20T11:04:20;27.33;;;3.33;;
18997;SDS011;9632;51.018;4.284;2023-12-20T11:06:53;20.08;;;2.60;;
18997;SDS011;9632;51.018;4.284;2023-12-20T11:09:25;25.48;;;3.05;;
18997;SDS011;9632;51.018;4.284;2023-12-20T11:12:02;14.75;;;2.60;;
18997;SDS011;9632;51.018;4.284;2023-12-20T11:14:47;22.33;;;2.22;;
18997;SDS011;9632;51.018;4.284;2023-12-20T11:17:15;19.17;;;2.58;;
18997;SDS011;9632;51.018;4.284;2023-12-20T11:20:24;19.17;;;2.85;;
18997;SDS011;9632;51.018;4.284;2023-12-20T11:22:33;19.75;;;2.58;;
18997;SDS011;9632;51.018;4.284;2023-12-20T11:25:07;18.25;;;3.22;;
18997;SDS011;9632;51.018;4.284;2023-12-20T11:27:34;21.10;;;2.53;;
18997;SDS011;9632;51.018;4.284;2023-12-20T11:30:10;25.90;;;3.38;;
18997;SDS011;9632;51.018;4.284;2023-12-20T11:32:36;18.67;;;2.67;;
18997;SDS011;9632;51.018;4.284;2023-12-20T11:37:37;19.00;;;2.90;;
18997;SDS011;9632;51.018;4.284;2023-12-20T11:40:08;25.45;;;2.80;;
18997;SDS011;9632;51.018;4.284;2023-12-20T11:42:40;21.40;;;2.33;;
18997;SDS011;9632;51.018;4.284;2023-12-20T11:45:09;25.45;;;2.88;;
18997;SDS011;9632;51.018;4.284;2023-12-20T11:47:36;12.77;;;2.40;;
18997;SDS011;9632;51.018;4.284;2023-12-20T11:50:01;27.77;;;3.17;;
18997;SDS011;9632;51.018;4.284;2023-12-20T11:52:29;22.90;;;2.58;;
18997;SDS011;9632;51.018;4.284;2023-12-20T11:54:55;22.50;;;2.70;;
18997;SDS011;9632;51.018;4.284;2023-12-20T11:57:22;18.02;;;2.78;;
18997;SDS011;9632;51.018;4.284;2023-12-20T11:59:47;17.38;;;2.28;;
18997;SDS011;9632;51.018;4.284;2023-12-20T12:02:13;21.20;;;2.90;;
18997;SDS011;9632;51.018;4.284;2023-12-20T12:04:41;27.35;;;2.95;;
18997;SDS011;9632;51.018;4.284;2023-12-20T12:07:07;19.48;;;2.65;;
18997;SDS011;9632;51.018;4.284;2023-12-20T12:09:32;21.55;;;2.50;;
18997;SDS011;9632;51.018;4.284;2023-12-20T12:11:58;14.77;;;2.28;;
18997;SDS011;9632;51.018;4.284;2023-12-20T12:14:24;18.95;;;2.70;;
18997;SDS011;9632;51.018;4.284;2023-12-20T12:16:50;24.35;;;2.58;;
18997;SDS011;9632;51.018;4.284;2023-12-20T12:19:24;18.73;;;2.10;;
18997;SDS011;9632;51.018;4.284;2023-12-20T12:21:51;20.23;;;2.58;;
18997;SDS011;9632;51.018;4.284;2023-12-20T12:24:28;15.27;;;2.15;;
18997;SDS011;9632;51.018;4.284;2023-12-20T12:26:56;27.10;;;2.83;;
18997;SDS011;9632;51.018;4.284;2023-12-20T12:29:22;31.05;;;3.67;;
18997;SDS011;9632;51.018;4.284;2023-12-20T12:31:49;19.45;;;2.83;;
18997;SDS011;9632;51.018;4.284;2023-12-20T12:34:15;15.57;;;2.60;;
18997;SDS011;9632;51.018;4.284;2023-12-20T12:36:42;22.40;;;2.92;;
18997;SDS011;9632;51.018;4.284;2023-12-20T12:39:08;16.17;;;2.25;;
18997;SDS011;9632;51.018;4.284;2023-12-20T12:41:37;20.30;;;2.67;;
18997;SDS011;9632;51.018;4.284;2023-12-20T12:44:02;14.27;;;2.13;;
18997;SDS011;9632;51.018;4.284;2023-12-20T12:46:28;15.70;;;2.83;;
18997;SDS011;9632;51.018;4.284;2023-12-20T12:48:54;18.92;;;2.47;;
18997;SDS011;9632;51.018;4.284;2023-12-20T12:51:19;21.02;;;2.88;;
18997;SDS011;9632;51.018;4.284;2023-12-20T12:53:45;14.55;;;2.58;;
18997;SDS011;9632;51.018;4.284;2023-12-20T12:56:11;22.67;;;2.67;;
18997;SDS011;9632;51.018;4.284;2023-12-20T12:58:38;15.90;;;2.83;;
18997;SDS011;9632;51.018;4.284;2023-12-20T13:01:04;18.65;;;2.70;;
18997;SDS011;9632;51.018;4.284;2023-12-20T13:03:29;19.75;;;3.10;;
18997;SDS011;9632;51.018;4.284;2023-12-20T13:05:55;19.25;;;2.80;;
18997;SDS011;9632;51.018;4.284;2023-12-20T13:08:21;19.35;;;2.78;;
18997;SDS011;9632;51.018;4.284;2023-12-20T13:10:46;16.58;;;2.75;;
18997;SDS011;9632;51.018;4.284;2023-12-20T13:13:12;21.65;;;2.60;;
18997;SDS011;9632;51.018;4.284;2023-12-20T13:15:38;18.83;;;3.03;;
18997;SDS011;9632;51.018;4.284;2023-12-20T13:18:04;19.27;;;2.90;;
18997;SDS011;9632;51.018;4.284;2023-12-20T13:20:31;17.65;;;2.20;;
18997;SDS011;9632;51.018;4.284;2023-12-20T13:22:56;19.35;;;2.22;;
18997;SDS011;9632;51.018;4.284;2023-12-20T13:25:22;18.40;;;2.65;;
18997;SDS011;9632;51.018;4.284;2023-12-20T13:27:48;20.15;;;2.55;;
18997;SDS011;9632;51.018;4.284;2023-12-20T13:30:15;19.95;;;2.50;;
18997;SDS011;9632;51.018;4.284;2023-12-20T13:32:42;20.60;;;2.90;;
18997;SDS011;9632;51.018;4.284;2023-12-20T13:35:07;21.23;;;2.80;;
18997;SDS011;9632;51.018;4.284;2023-12-20T13:37:34;23.63;;;2.60;;
18997;SDS011;9632;51.018;4.284;2023-12-20T13:39:59;20.63;;;2.83;;
18997;SDS011;9632;51.018;4.284;2023-12-20T13:42:26;17.83;;;2.40;;
18997;SDS011;9632;51.018;4.284;2023-12-20T13:44:52;19.52;;;2.40;;
18997;SDS011;9632;51.018;4.284;2023-12-20T13:47:18;14.77;;;2.30;;
18997;SDS011;9632;51.018;4.284;2023-12-20T13:49:44;19.02;;;2.67;;
18997;SDS011;9632;51.018;4.284;2023-12-20T13:52:10;21.55;;;2.70;;
18997;SDS011;9632;51.018;4.284;2023-12-20T13:54:36;18.98;;;2.58;;
18997;SDS011;9632;51.018;4.284;2023-12-20T13:57:02;16.55;;;2.55;;
18997;SDS011;9632;51.018;4.284;2023-12-20T13:59:28;15.30;;;2.50;;
18997;SDS011;9632;51.018;4.284;2023-12-20T14:01:54;15.40;;;2.55;;
18997;SDS011;9632;51.018;4.284;2023-12-20T14:04:20;13.43;;;2.15;;
18997;SDS011;9632;51.018;4.284;2023-12-20T14:06:46;13.45;;;2.20;;
18997;SDS011;9632;51.018;4.284;2023-12-20T14:09:12;16.23;;;2.33;;
18997;SDS011;9632;51.018;4.284;2023-12-20T14:11:38;12.63;;;2.17;;
18997;SDS011;9632;51.018;4.284;2023-12-20T14:14:06;17.88;;;2.45;;
18997;SDS011;9632;51.018;4.284;2023-12-20T14:16:33;17.90;;;2.45;;
18997;SDS011;9632;51.018;4.284;2023-12-20T14:18:59;22.60;;;3.22;;
18997;SDS011;9632;51.018;4.284;2023-12-20T14:21:25;16.70;;;2.17;;
18997;SDS011;9632;51.018;4.284;2023-12-20T14:23:51;16.90;;;2.70;;
18997;SDS011;9632;51.018;4.284;2023-12-20T14:26:17;19.38;;;2.50;;
18997;SDS011;9632;51.018;4.284;2023-12-20T14:28:43;19.80;;;2.28;;
18997;SDS011;9632;51.018;4.284;2023-12-20T14:31:08;11.38;;;2.40;;
18997;SDS011;9632;51.018;4.284;2023-12-20T14:33:35;14.13;;;2.92;;
18997;SDS011;9632;51.018;4.284;2023-12-20T14:36:03;16.58;;;2.90;;
18997;SDS011;9632;51.018;4.284;2023-12-20T14:38:30;11.90;;;2.47;;
18997;SDS011;9632;51.018;4.284;2023-12-20T14:40:56;16.90;;;2.88;;
18997;SDS011;9632;51.018;4.284;2023-12-20T14:43:22;13.80;;;2.70;;
18997;SDS011;9632;51.018;4.284;2023-12-20T14:45:48;15.85;;;2.72;;